KMTP

Details ICAO KMTP
Name MONTAUK
Region United States
Timezone America/New_York (UTC-5.0)
Plans Departing 5
Arriving 4
Stats Elevation 6 ft / 2 m (AMSL)
Location 41.076459° -71.920770°
Runways 1
Magnetic Variation 13.965° W
Sunrise 2017-12-18 12:09:12 UTC / 2017-12-18 07:09:12 Local
Sunset 2017-12-18 21:22:18 UTC / 2017-12-18 16:22:18 Local
Advertisement - Login to hide

Runways

ID Width Length Bearing (true) Bearing (mag) Surface Threshold Offset Overrun Length
06 75 ft / 23 m 3,479 ft / 1,060 m 46.93° 60.89° Asphalt 538 ft / 164 m 0 ft / 0 m
24 75 ft / 23 m 3,479 ft / 1,060 m 226.93° 240.89° Asphalt 456 ft / 139 m 0 ft / 0 m

Map

Weather


0- 5 10 15 20 25 30 35+ Temperature / ° C

Clouds and Precipitation
Forecast for 2017-12-18 18:00 UTC. Updated 2 hours ago

Ground ~20,000 ft ~40,000 ft Winds

METAR

KMTP 181654Z AUTO 00000KT 07/04 A3004 RMK AO1 SLP173 T00720039

TAF

Not found

Frequencies

Unicom 122.70 MHz CTAF/UNICOM
Departure 125.75 MHz PROVIDENCE DEP
Approach 118.95 MHz NEW YORK APP
Warning: Do not use this data for real-world aviation or navigation. No guarantee of current accuracy is given.